sensor_id;sensor_type;location;lat;lon;timestamp;pressure;altitude;pressure_sealevel;temperature;humidity
51603;BME280;37954;51.980;5.850;2023-12-20T00:00:09;101183.09;;;6.73;100.00
51603;BME280;37954;51.980;5.850;2023-12-20T00:04:21;101183.28;;;6.72;100.00
51603;BME280;37954;51.980;5.850;2023-12-20T00:08:33;101182.06;;;6.74;100.00
51603;BME280;37954;51.980;5.850;2023-12-20T00:12:44;101177.56;;;6.75;100.00
51603;BME280;37954;51.980;5.850;2023-12-20T00:16:56;101181.44;;;6.72;100.00
51603;BME280;37954;51.980;5.850;2023-12-20T00:21:07;101181.84;;;6.76;100.00
51603;BME280;37954;51.980;5.850;2023-12-20T00:25:19;101175.88;;;6.88;100.00
51603;BME280;37954;51.980;5.850;2023-12-20T00:29:31;101169.88;;;6.86;100.00
51603;BME280;37954;51.980;5.850;2023-12-20T00:33:42;101160.31;;;6.77;100.00
51603;BME280;37954;51.980;5.850;2023-12-20T00:37:55;101163.66;;;6.64;100.00
51603;BME280;37954;51.980;5.850;2023-12-20T00:42:07;101165.69;;;6.62;100.00
51603;BME280;37954;51.980;5.850;2023-12-20T00:46:18;101166.63;;;6.55;100.00
51603;BME280;37954;51.980;5.850;2023-12-20T00:50:31;101171.34;;;6.53;100.00
51603;BME280;37954;51.980;5.850;2023-12-20T00:54:43;101170.59;;;6.44;100.00
51603;BME280;37954;51.980;5.850;2023-12-20T00:58:55;101173.44;;;6.43;100.00
51603;BME280;37954;51.980;5.850;2023-12-20T01:03:06;101167.03;;;6.37;100.00
51603;BME280;37954;51.980;5.850;2023-12-20T01:07:18;101171.72;;;6.35;100.00
51603;BME280;37954;51.980;5.850;2023-12-20T01:11:30;101169.97;;;6.27;100.00
51603;BME280;37954;51.980;5.850;2023-12-20T01:15:41;101159.03;;;6.22;100.00
51603;BME280;37954;51.980;5.850;2023-12-20T01:19:53;101160.06;;;6.21;100.00
51603;BME280;37954;51.980;5.850;2023-12-20T01:24:05;101161.41;;;6.17;100.00
51603;BME280;37954;51.980;5.850;2023-12-20T01:28:16;101174.41;;;6.20;100.00
51603;BME280;37954;51.980;5.850;2023-12-20T01:32:28;101166.66;;;6.11;100.00
51603;BME280;37954;51.980;5.850;2023-12-20T01:36:40;101175.31;;;6.13;100.00
51603;BME280;37954;51.980;5.850;2023-12-20T01:40:51;101160.66;;;6.09;100.00
51603;BME280;37954;51.980;5.850;2023-12-20T01:45:03;101166.00;;;6.09;100.00
51603;BME280;37954;51.980;5.850;2023-12-20T01:49:16;101171.97;;;6.11;100.00
51603;BME280;37954;51.980;5.850;2023-12-20T01:53:28;101180.34;;;6.08;100.00
51603;BME280;37954;51.980;5.850;2023-12-20T01:57:41;101186.31;;;6.10;100.00
51603;BME280;37954;51.980;5.850;2023-12-20T02:01:54;101177.78;;;6.14;100.00
51603;BME280;37954;51.980;5.850;2023-12-20T02:06:07;101179.16;;;6.25;100.00
51603;BME280;37954;51.980;5.850;2023-12-20T02:10:19;101175.13;;;6.29;100.00
51603;BME280;37954;51.980;5.850;2023-12-20T02:14:32;101178.44;;;6.31;100.00
51603;BME280;37954;51.980;5.850;2023-12-20T02:18:43;101179.97;;;6.25;100.00
51603;BME280;37954;51.980;5.850;2023-12-20T02:22:56;101162.53;;;6.23;100.00
51603;BME280;37954;51.980;5.850;2023-12-20T02:27:08;101154.06;;;6.19;100.00
51603;BME280;37954;51.980;5.850;2023-12-20T02:31:23;101161.88;;;6.21;100.00
51603;BME280;37954;51.980;5.850;2023-12-20T02:35:34;101162.78;;;6.28;100.00
51603;BME280;37954;51.980;5.850;2023-12-20T02:39:46;101162.78;;;6.28;100.00
51603;BME280;37954;51.980;5.850;2023-12-20T02:43:58;101155.53;;;6.37;100.00
51603;BME280;37954;51.980;5.850;2023-12-20T02:48:09;101160.75;;;6.45;100.00
51603;BME280;37954;51.980;5.850;2023-12-20T02:52:23;101146.03;;;6.49;100.00
51603;BME280;37954;51.980;5.850;2023-12-20T02:56:34;101145.72;;;6.58;100.00
51603;BME280;37954;51.980;5.850;2023-12-20T03:00:46;101139.19;;;6.61;100.00
51603;BME280;37954;51.980;5.850;2023-12-20T03:04:58;101140.09;;;6.68;100.00
51603;BME280;37954;51.980;5.850;2023-12-20T03:09:11;101136.78;;;6.66;100.00
51603;BME280;37954;51.980;5.850;2023-12-20T03:13:23;101136.69;;;6.59;100.00
51603;BME280;37954;51.980;5.850;2023-12-20T03:17:35;101128.50;;;6.61;100.00
51603;BME280;37954;51.980;5.850;2023-12-20T03:21:47;101129.84;;;6.50;100.00
51603;BME280;37954;51.980;5.850;2023-12-20T03:25:59;101133.25;;;6.44;100.00
51603;BME280;37954;51.980;5.850;2023-12-20T03:30:11;101129.50;;;6.39;100.00
51603;BME280;37954;51.980;5.850;2023-12-20T03:34:23;101123.22;;;6.32;100.00
51603;BME280;37954;51.980;5.850;2023-12-20T03:38:34;101116.59;;;6.27;100.00
51603;BME280;37954;51.980;5.850;2023-12-20T03:42:46;101108.78;;;6.26;100.00
51603;BME280;37954;51.980;5.850;2023-12-20T03:46:57;101111.47;;;6.26;100.00
51603;BME280;37954;51.980;5.850;2023-12-20T03:51:09;101113.38;;;6.32;100.00
51603;BME280;37954;51.980;5.850;2023-12-20T03:55:21;101119.38;;;6.34;100.00
51603;BME280;37954;51.980;5.850;2023-12-20T03:59:35;101128.38;;;6.33;100.00
51603;BME280;37954;51.980;5.850;2023-12-20T04:03:47;101128.94;;;6.28;100.00
51603;BME280;37954;51.980;5.850;2023-12-20T04:08:02;101116.34;;;6.37;100.00
51603;BME280;37954;51.980;5.850;2023-12-20T04:12:15;101104.91;;;6.43;100.00
51603;BME280;37954;51.980;5.850;2023-12-20T04:16:27;101114.19;;;6.47;100.00
51603;BME280;37954;51.980;5.850;2023-12-20T04:20:38;101117.19;;;6.59;100.00
51603;BME280;37954;51.980;5.850;2023-12-20T04:24:50;101122.81;;;6.64;100.00
51603;BME280;37954;51.980;5.850;2023-12-20T04:29:01;101116.81;;;6.62;100.00
51603;BME280;37954;51.980;5.850;2023-12-20T04:33:13;101121.16;;;6.63;100.00
51603;BME280;37954;51.980;5.850;2023-12-20T04:37:25;101114.16;;;6.62;100.00
51603;BME280;37954;51.980;5.850;2023-12-20T04:41:36;101113.78;;;6.65;100.00
51603;BME280;37954;51.980;5.850;2023-12-20T04:45:48;101120.03;;;6.72;100.00
51603;BME280;37954;51.980;5.850;2023-12-20T04:49:59;101118.56;;;6.70;100.00
51603;BME280;37954;51.980;5.850;2023-12-20T04:54:11;101110.19;;;6.73;100.00
51603;BME280;37954;51.980;5.850;2023-12-20T04:58:24;101114.09;;;6.77;100.00
51603;BME280;37954;51.980;5.850;2023-12-20T05:02:36;101113.81;;;6.86;100.00
51603;BME280;37954;51.980;5.850;2023-12-20T05:06:48;101103.78;;;6.88;100.00
51603;BME280;37954;51.980;5.850;2023-12-20T05:11:01;101096.22;;;6.92;100.00
51603;BME280;37954;51.980;5.850;2023-12-20T05:15:13;101099.31;;;6.95;100.00
51603;BME280;37954;51.980;5.850;2023-12-20T05:19:25;101081.31;;;7.04;100.00
51603;BME280;37954;51.980;5.850;2023-12-20T05:23:38;101089.78;;;7.08;100.00
51603;BME280;37954;51.980;5.850;2023-12-20T05:27:50;101088.34;;;7.12;100.00
51603;BME280;37954;51.980;5.850;2023-12-20T05:32:02;101094.16;;;7.15;100.00
51603;BME280;37954;51.980;5.850;2023-12-20T05:36:15;101087.22;;;7.21;100.00
51603;BME280;37954;51.980;5.850;2023-12-20T05:40:27;101084.34;;;7.22;100.00
51603;BME280;37954;51.980;5.850;2023-12-20T05:44:38;101075.53;;;7.22;100.00
51603;BME280;37954;51.980;5.850;2023-12-20T05:48:50;101095.09;;;7.29;100.00
51603;BME280;37954;51.980;5.850;2023-12-20T05:53:03;101099.41;;;7.30;100.00
51603;BME280;37954;51.980;5.850;2023-12-20T05:57:14;101099.22;;;7.31;100.00
51603;BME280;37954;51.980;5.850;2023-12-20T06:01:26;101096.94;;;7.28;100.00
51603;BME280;37954;51.980;5.850;2023-12-20T06:05:38;101105.19;;;7.33;100.00
51603;BME280;37954;51.980;5.850;2023-12-20T06:09:49;101112.19;;;7.34;100.00
51603;BME280;37954;51.980;5.850;2023-12-20T06:14:02;101116.97;;;7.39;100.00
51603;BME280;37954;51.980;5.850;2023-12-20T06:18:14;101096.81;;;7.37;100.00
51603;BME280;37954;51.980;5.850;2023-12-20T06:22:25;101093.75;;;7.40;100.00
51603;BME280;37954;51.980;5.850;2023-12-20T06:26:37;101093.97;;;7.45;100.00
51603;BME280;37954;51.980;5.850;2023-12-20T06:30:49;101088.41;;;7.40;100.00
51603;BME280;37954;51.980;5.850;2023-12-20T06:35:01;101085.72;;;7.40;100.00
51603;BME280;37954;51.980;5.850;2023-12-20T06:39:18;101069.59;;;7.26;100.00
51603;BME280;37954;51.980;5.850;2023-12-20T06:43:33;101054.72;;;7.17;100.00
51603;BME280;37954;51.980;5.850;2023-12-20T06:48:00;101064.69;;;7.30;100.00
51603;BME280;37954;51.980;5.850;2023-12-20T06:52:21;101055.41;;;7.26;100.00
51603;BME280;37954;51.980;5.850;2023-12-20T06:56:33;101088.44;;;7.46;100.00
51603;BME280;37954;51.980;5.850;2023-12-20T07:00:48;101060.41;;;7.36;100.00
51603;BME280;37954;51.980;5.850;2023-12-20T07:05:00;101083.53;;;7.50;100.00
51603;BME280;37954;51.980;5.850;2023-12-20T07:09:16;101054.94;;;7.44;100.00
51603;BME280;37954;51.980;5.850;2023-12-20T07:13:27;101032.59;;;7.30;100.00
51603;BME280;37954;51.980;5.850;2023-12-20T07:17:39;101058.63;;;7.43;100.00
51603;BME280;37954;51.980;5.850;2023-12-20T07:21:51;101065.66;;;7.50;100.00
51603;BME280;37954;51.980;5.850;2023-12-20T07:26:04;101062.53;;;7.47;100.00
51603;BME280;37954;51.980;5.850;2023-12-20T07:30:16;101063.81;;;7.51;100.00
51603;BME280;37954;51.980;5.850;2023-12-20T07:34:28;101051.63;;;7.42;100.00
51603;BME280;37954;51.980;5.850;2023-12-20T07:38:40;101066.88;;;7.48;100.00
51603;BME280;37954;51.980;5.850;2023-12-20T07:42:53;101057.88;;;7.55;100.00
51603;BME280;37954;51.980;5.850;2023-12-20T07:47:05;101051.47;;;7.50;100.00
51603;BME280;37954;51.980;5.850;2023-12-20T07:51:17;101040.78;;;7.50;100.00
51603;BME280;37954;51.980;5.850;2023-12-20T07:55:34;101060.56;;;7.62;100.00
51603;BME280;37954;51.980;5.850;2023-12-20T07:59:46;101068.81;;;7.60;100.00
51603;BME280;37954;51.980;5.850;2023-12-20T08:03:57;101073.72;;;7.57;100.00
51603;BME280;37954;51.980;5.850;2023-12-20T08:08:09;101073.56;;;7.65;100.00
51603;BME280;37954;51.980;5.850;2023-12-20T08:12:21;101083.28;;;7.73;100.00
51603;BME280;37954;51.980;5.850;2023-12-20T08:16:33;101103.94;;;7.85;100.00
51603;BME280;37954;51.980;5.850;2023-12-20T08:20:45;101085.78;;;7.81;100.00
51603;BME280;37954;51.980;5.850;2023-12-20T08:24:56;101053.00;;;7.65;100.00
51603;BME280;37954;51.980;5.850;2023-12-20T08:29:08;101063.31;;;7.68;100.00
51603;BME280;37954;51.980;5.850;2023-12-20T08:33:21;101076.75;;;7.82;100.00
51603;BME280;37954;51.980;5.850;2023-12-20T08:37:33;101064.63;;;7.79;100.00
51603;BME280;37954;51.980;5.850;2023-12-20T08:41:45;101060.28;;;7.78;100.00
51603;BME280;37954;51.980;5.850;2023-12-20T08:45:57;101073.28;;;7.88;100.00
51603;BME280;37954;51.980;5.850;2023-12-20T08:50:09;101044.84;;;7.80;100.00
51603;BME280;37954;51.980;5.850;2023-12-20T08:54:21;101061.97;;;7.86;100.00
51603;BME280;37954;51.980;5.850;2023-12-20T08:58:33;101044.47;;;7.83;100.00
51603;BME280;37954;51.980;5.850;2023-12-20T09:02:47;101062.22;;;7.97;100.00
51603;BME280;37954;51.980;5.850;2023-12-20T09:06:59;101044.50;;;7.90;100.00
51603;BME280;37954;51.980;5.850;2023-12-20T09:11:12;101063.09;;;8.04;100.00
51603;BME280;37954;51.980;5.850;2023-12-20T09:15:25;101054.63;;;8.01;100.00
51603;BME280;37954;51.980;5.850;2023-12-20T09:19:38;101061.88;;;8.07;100.00
51603;BME280;37954;51.980;5.850;2023-12-20T09:23:50;101044.13;;;7.93;100.00
51603;BME280;37954;51.980;5.850;2023-12-20T09:28:02;101056.28;;;8.02;100.00
51603;BME280;37954;51.980;5.850;2023-12-20T09:32:14;101056.66;;;7.92;100.00
51603;BME280;37954;51.980;5.850;2023-12-20T09:36:26;101057.69;;;7.91;100.00
51603;BME280;37954;51.980;5.850;2023-12-20T09:40:41;101074.56;;;7.98;100.00
51603;BME280;37954;51.980;5.850;2023-12-20T09:44:53;101053.78;;;7.94;100.00
51603;BME280;37954;51.980;5.850;2023-12-20T09:49:05;101045.53;;;7.89;100.00
51603;BME280;37954;51.980;5.850;2023-12-20T09:53:17;101042.41;;;7.85;100.00
51603;BME280;37954;51.980;5.850;2023-12-20T09:57:31;101067.38;;;7.99;100.00
51603;BME280;37954;51.980;5.850;2023-12-20T10:01:43;101059.34;;;7.99;100.00
51603;BME280;37954;51.980;5.850;2023-12-20T10:05:56;101073.38;;;8.01;100.00
51603;BME280;37954;51.980;5.850;2023-12-20T10:10:10;101072.16;;;8.03;100.00
51603;BME280;37954;51.980;5.850;2023-12-20T10:14:24;101073.22;;;8.09;100.00
51603;BME280;37954;51.980;5.850;2023-12-20T10:18:36;101059.16;;;8.00;100.00
51603;BME280;37954;51.980;5.850;2023-12-20T10:22:51;101076.09;;;8.08;100.00
51603;BME280;37954;51.980;5.850;2023-12-20T10:27:06;101088.50;;;8.22;100.00
51603;BME280;37954;51.980;5.850;2023-12-20T10:31:34;101088.72;;;8.27;100.00
51603;BME280;37954;51.980;5.850;2023-12-20T10:35:46;101079.31;;;8.37;100.00
51603;BME280;37954;51.980;5.850;2023-12-20T10:40:03;101071.31;;;8.44;100.00
51603;BME280;37954;51.980;5.850;2023-12-20T10:44:16;101051.97;;;8.42;100.00
51603;BME280;37954;51.980;5.850;2023-12-20T10:48:29;101054.25;;;8.45;100.00
51603;BME280;37954;51.980;5.850;2023-12-20T10:52:43;101050.94;;;8.50;100.00
51603;BME280;37954;51.980;5.850;2023-12-20T10:56:57;101040.41;;;8.35;100.00
51603;BME280;37954;51.980;5.850;2023-12-20T11:01:10;101045.19;;;8.53;100.00
51603;BME280;37954;51.980;5.850;2023-12-20T11:10:29;101042.75;;;8.64;100.00
51603;BME280;37954;51.980;5.850;2023-12-20T11:14:52;101041.28;;;8.68;100.00
51603;BME280;37954;51.980;5.850;2023-12-20T11:19:05;101037.38;;;8.71;100.00
51603;BME280;37954;51.980;5.850;2023-12-20T11:23:17;101023.19;;;8.77;100.00
51603;BME280;37954;51.980;5.850;2023-12-20T11:27:30;101035.38;;;8.93;100.00
51603;BME280;37954;51.980;5.850;2023-12-20T11:31:42;101014.56;;;8.95;100.00
51603;BME280;37954;51.980;5.850;2023-12-20T11:35:56;101012.06;;;9.06;100.00
51603;BME280;37954;51.980;5.850;2023-12-20T11:40:12;100987.34;;;9.11;100.00
51603;BME280;37954;51.980;5.850;2023-12-20T11:44:25;100979.50;;;9.16;100.00
51603;BME280;37954;51.980;5.850;2023-12-20T11:48:39;100988.56;;;9.28;100.00
51603;BME280;37954;51.980;5.850;2023-12-20T11:52:56;101005.25;;;9.30;100.00
51603;BME280;37954;51.980;5.850;2023-12-20T11:57:09;100987.94;;;9.20;100.00
51603;BME280;37954;51.980;5.850;2023-12-20T12:01:20;100967.56;;;9.12;100.00
51603;BME280;37954;51.980;5.850;2023-12-20T12:05:33;100994.94;;;9.27;100.00
51603;BME280;37954;51.980;5.850;2023-12-20T12:09:45;100985.47;;;9.25;100.00
51603;BME280;37954;51.980;5.850;2023-12-20T12:13:57;100968.97;;;9.21;100.00
51603;BME280;37954;51.980;5.850;2023-12-20T12:18:09;100977.84;;;9.22;100.00
51603;BME280;37954;51.980;5.850;2023-12-20T12:22:22;100972.69;;;9.33;100.00
51603;BME280;37954;51.980;5.850;2023-12-20T12:26:38;100972.84;;;9.45;100.00
51603;BME280;37954;51.980;5.850;2023-12-20T12:30:57;100973.47;;;9.47;100.00
51603;BME280;37954;51.980;5.850;2023-12-20T12:35:09;100983.75;;;9.57;99.77
51603;BME280;37954;51.980;5.850;2023-12-20T12:39:23;100976.09;;;9.60;99.19
51603;BME280;37954;51.980;5.850;2023-12-20T12:43:36;100963.72;;;9.59;99.14
51603;BME280;37954;51.980;5.850;2023-12-20T12:47:48;100950.78;;;9.50;99.25
51603;BME280;37954;51.980;5.850;2023-12-20T12:52:00;100961.31;;;9.45;99.80
51603;BME280;37954;51.980;5.850;2023-12-20T12:56:12;100952.03;;;9.40;99.75
51603;BME280;37954;51.980;5.850;2023-12-20T13:00:24;100945.41;;;9.43;100.00
51603;BME280;37954;51.980;5.850;2023-12-20T13:04:37;100942.72;;;9.50;100.00
51603;BME280;37954;51.980;5.850;2023-12-20T13:08:49;100927.25;;;9.52;100.00
51603;BME280;37954;51.980;5.850;2023-12-20T13:13:01;100930.09;;;9.63;100.00
51603;BME280;37954;51.980;5.850;2023-12-20T13:17:13;100924.31;;;9.66;100.00
51603;BME280;37954;51.980;5.850;2023-12-20T13:21:24;100907.81;;;9.63;100.00
51603;BME280;37954;51.980;5.850;2023-12-20T13:25:36;100897.28;;;9.61;100.00
51603;BME280;37954;51.980;5.850;2023-12-20T13:29:48;100888.84;;;9.58;99.63
51603;BME280;37954;51.980;5.850;2023-12-20T13:34:00;100882.88;;;9.56;99.15
51603;BME280;37954;51.980;5.850;2023-12-20T13:38:13;100870.53;;;9.48;99.09
51603;BME280;37954;51.980;5.850;2023-12-20T13:42:25;100885.75;;;9.54;99.15
51603;BME280;37954;51.980;5.850;2023-12-20T13:46:40;100862.72;;;9.40;99.30
51603;BME280;37954;51.980;5.850;2023-12-20T13:50:52;100853.66;;;9.41;98.93
51603;BME280;37954;51.980;5.850;2023-12-20T13:55:04;100854.06;;;9.45;98.71
51603;BME280;37954;51.980;5.850;2023-12-20T13:59:18;100869.94;;;9.46;98.70
51603;BME280;37954;51.980;5.850;2023-12-20T14:03:30;100855.72;;;9.39;98.64
51603;BME280;37954;51.980;5.850;2023-12-20T14:07:43;100866.63;;;9.44;98.83
51603;BME280;37954;51.980;5.850;2023-12-20T14:11:56;100869.72;;;9.48;98.52
51603;BME280;37954;51.980;5.850;2023-12-20T14:16:11;100871.78;;;9.52;98.90
51603;BME280;37954;51.980;5.850;2023-12-20T14:20:24;100866.63;;;9.51;98.37
51603;BME280;37954;51.980;5.850;2023-12-20T14:24:35;100869.50;;;9.49;97.84
51603;BME280;37954;51.980;5.850;2023-12-20T14:28:48;100877.13;;;9.52;97.20
51603;BME280;37954;51.980;5.850;2023-12-20T14:32:59;100894.47;;;9.50;97.29
51603;BME280;37954;51.980;5.850;2023-12-20T14:37:11;100877.56;;;9.42;97.02
51603;BME280;37954;51.980;5.850;2023-12-20T14:41:23;100880.25;;;9.42;96.69
51603;BME280;37954;51.980;5.850;2023-12-20T14:45:40;100876.53;;;9.43;97.02
51603;BME280;37954;51.980;5.850;2023-12-20T14:49:51;100879.00;;;9.52;97.03
51603;BME280;37954;51.980;5.850;2023-12-20T14:54:03;100870.94;;;9.52;97.26
51603;BME280;37954;51.980;5.850;2023-12-20T14:58:15;100875.84;;;9.55;97.36
51603;BME280;37954;51.980;5.850;2023-12-20T15:02:27;100873.63;;;9.52;97.39
51603;BME280;37954;51.980;5.850;2023-12-20T15:06:39;100869.09;;;9.46;97.27
51603;BME280;37954;51.980;5.850;2023-12-20T15:10:50;100867.88;;;9.41;97.38
51603;BME280;37954;51.980;5.850;2023-12-20T15:15:02;100878.41;;;9.43;97.34
51603;BME280;37954;51.980;5.850;2023-12-20T15:19:16;100876.75;;;9.35;97.58
51603;BME280;37954;51.980;5.850;2023-12-20T15:23:28;100862.31;;;9.36;97.83
51603;BME280;37954;51.980;5.850;2023-12-20T15:27:42;100868.50;;;9.37;97.76
51603;BME280;37954;51.980;5.850;2023-12-20T15:31:54;100860.31;;;9.32;98.40
51603;BME280;37954;51.980;5.850;2023-12-20T15:36:06;100851.22;;;9.33;98.65
51603;BME280;37954;51.980;5.850;2023-12-20T15:40:18;100859.25;;;9.33;99.20
51603;BME280;37954;51.980;5.850;2023-12-20T15:44:36;100848.97;;;9.30;99.66
51603;BME280;37954;51.980;5.850;2023-12-20T15:48:49;100850.63;;;9.24;100.00
51603;BME280;37954;51.980;5.850;2023-12-20T15:53:03;100830.84;;;9.19;100.00
51603;BME280;37954;51.980;5.850;2023-12-20T15:57:15;100832.91;;;9.23;100.00
51603;BME280;37954;51.980;5.850;2023-12-20T16:01:29;100823.19;;;9.22;100.00
51603;BME280;37954;51.980;5.850;2023-12-20T16:05:41;100814.59;;;9.14;100.00
51603;BME280;37954;51.980;5.850;2023-12-20T16:09:53;100832.13;;;9.10;100.00
51603;BME280;37954;51.980;5.850;2023-12-20T16:14:04;100824.28;;;9.08;100.00
51603;BME280;37954;51.980;5.850;2023-12-20T16:18:16;100789.91;;;8.98;100.00
51603;BME280;37954;51.980;5.850;2023-12-20T16:22:28;100790.53;;;8.94;100.00
51603;BME280;37954;51.980;5.850;2023-12-20T16:26:40;100790.75;;;8.99;100.00
51603;BME280;37954;51.980;5.850;2023-12-20T16:30:53;100784.13;;;9.01;100.00
51603;BME280;37954;51.980;5.850;2023-12-20T16:35:07;100791.94;;;9.10;100.00
51603;BME280;37954;51.980;5.850;2023-12-20T16:39:21;100763.50;;;9.02;100.00
51603;BME280;37954;51.980;5.850;2023-12-20T16:43:35;100763.97;;;8.99;100.00
51603;BME280;37954;51.980;5.850;2023-12-20T16:47:47;100756.28;;;9.02;100.00
51603;BME280;37954;51.980;5.850;2023-12-20T16:51:59;100739.25;;;8.90;100.00
51603;BME280;37954;51.980;5.850;2023-12-20T16:56:14;100761.03;;;9.00;100.00
51603;BME280;37954;51.980;5.850;2023-12-20T17:00:26;100733.06;;;8.90;100.00
51603;BME280;37954;51.980;5.850;2023-12-20T17:04:38;100740.00;;;9.04;100.00
51603;BME280;37954;51.980;5.850;2023-12-20T17:08:51;100712.84;;;8.94;100.00
51603;BME280;37954;51.980;5.850;2023-12-20T17:13:02;100718.56;;;9.04;100.00
51603;BME280;37954;51.980;5.850;2023-12-20T17:17:14;100714.66;;;9.06;100.00
51603;BME280;37954;51.980;5.850;2023-12-20T17:21:28;100701.72;;;8.97;100.00
51603;BME280;37954;51.980;5.850;2023-12-20T17:25:40;100696.31;;;9.03;100.00
51603;BME280;37954;51.980;5.850;2023-12-20T17:29:52;100672.25;;;8.97;100.00
51603;BME280;37954;51.980;5.850;2023-12-20T17:34:04;100702.88;;;9.07;100.00
51603;BME280;37954;51.980;5.850;2023-12-20T17:38:19;100687.09;;;8.93;100.00
51603;BME280;37954;51.980;5.850;2023-12-20T17:42:30;100658.91;;;8.84;100.00
51603;BME280;37954;51.980;5.850;2023-12-20T17:46:42;100677.00;;;8.95;100.00
51603;BME280;37954;51.980;5.850;2023-12-20T17:50:54;100670.59;;;8.96;100.00
51603;BME280;37954;51.980;5.850;2023-12-20T17:55:06;100672.06;;;8.92;100.00
51603;BME280;37954;51.980;5.850;2023-12-20T17:59:20;100652.69;;;8.90;100.00
51603;BME280;37954;51.980;5.850;2023-12-20T18:03:32;100658.84;;;8.97;100.00
51603;BME280;37954;51.980;5.850;2023-12-20T18:07:44;100633.09;;;8.96;100.00
51603;BME280;37954;51.980;5.850;2023-12-20T18:12:02;100642.34;;;9.00;100.00
51603;BME280;37954;51.980;5.850;2023-12-20T18:16:14;100652.81;;;9.08;100.00
51603;BME280;37954;51.980;5.850;2023-12-20T18:20:26;100620.97;;;8.93;100.00
51603;BME280;37954;51.980;5.850;2023-12-20T18:24:38;100628.56;;;8.96;100.00
51603;BME280;37954;51.980;5.850;2023-12-20T18:28:50;100623.00;;;8.98;100.00
51603;BME280;37954;51.980;5.850;2023-12-20T18:33:02;100634.47;;;9.05;100.00
51603;BME280;37954;51.980;5.850;2023-12-20T18:37:17;100605.31;;;8.90;100.00
51603;BME280;37954;51.980;5.850;2023-12-20T18:41:28;100612.91;;;8.93;100.00
51603;BME280;37954;51.980;5.850;2023-12-20T18:45:40;100613.47;;;9.02;100.00
51603;BME280;37954;51.980;5.850;2023-12-20T18:49:55;100588.00;;;8.93;100.00
51603;BME280;37954;51.980;5.850;2023-12-20T18:54:13;100585.91;;;8.95;100.00
51603;BME280;37954;51.980;5.850;2023-12-20T18:58:25;100585.84;;;9.01;100.00
51603;BME280;37954;51.980;5.850;2023-12-20T19:02:41;100572.94;;;8.92;100.00
51603;BME280;37954;51.980;5.850;2023-12-20T19:06:54;100581.38;;;8.95;100.00
51603;BME280;37954;51.980;5.850;2023-12-20T19:11:09;100573.94;;;8.97;100.00
51603;BME280;37954;51.980;5.850;2023-12-20T19:15:21;100567.16;;;8.95;100.00
51603;BME280;37954;51.980;5.850;2023-12-20T19:19:33;100579.03;;;9.05;100.00
51603;BME280;37954;51.980;5.850;2023-12-20T19:23:45;100556.78;;;9.05;100.00
51603;BME280;37954;51.980;5.850;2023-12-20T19:27:56;100560.28;;;9.05;100.00
51603;BME280;37954;51.980;5.850;2023-12-20T19:32:08;100560.88;;;9.07;100.00
51603;BME280;37954;51.980;5.850;2023-12-20T19:36:20;100519.13;;;9.00;100.00
51603;BME280;37954;51.980;5.850;2023-12-20T19:40:32;100508.03;;;8.96;100.00
51603;BME280;37954;51.980;5.850;2023-12-20T19:44:47;100516.38;;;9.06;100.00
51603;BME280;37954;51.980;5.850;2023-12-20T19:48:59;100506.16;;;8.97;100.00
51603;BME280;37954;51.980;5.850;2023-12-20T19:53:11;100501.44;;;8.92;100.00
51603;BME280;37954;51.980;5.850;2023-12-20T19:57:25;100535.09;;;9.13;100.00
51603;BME280;37954;51.980;5.850;2023-12-20T20:01:37;100508.06;;;9.15;100.00
51603;BME280;37954;51.980;5.850;2023-12-20T20:05:55;100487.94;;;9.05;100.00
51603;BME280;37954;51.980;5.850;2023-12-20T20:10:08;100484.38;;;9.12;100.00
51603;BME280;37954;51.980;5.850;2023-12-20T20:14:20;100502.53;;;9.10;100.00
51603;BME280;37954;51.980;5.850;2023-12-20T20:18:32;100495.50;;;9.15;100.00
51603;BME280;37954;51.980;5.850;2023-12-20T20:22:44;100504.13;;;9.17;100.00
51603;BME280;37954;51.980;5.850;2023-12-20T20:26:55;100498.19;;;9.15;100.00
51603;BME280;37954;51.980;5.850;2023-12-20T20:31:07;100498.53;;;9.19;100.00
51603;BME280;37954;51.980;5.850;2023-12-20T20:35:20;100508.44;;;9.18;100.00
51603;BME280;37954;51.980;5.850;2023-12-20T20:39:32;100513.97;;;9.23;100.00
51603;BME280;37954;51.980;5.850;2023-12-20T20:43:44;100491.88;;;9.03;100.00
51603;BME280;37954;51.980;5.850;2023-12-20T20:47:56;100511.13;;;9.18;100.00
51603;BME280;37954;51.980;5.850;2023-12-20T20:52:22;100494.28;;;9.11;100.00
51603;BME280;37954;51.980;5.850;2023-12-20T20:56:34;100477.91;;;9.19;100.00
51603;BME280;37954;51.980;5.850;2023-12-20T21:07:13;100441.66;;;8.98;100.00
51603;BME280;37954;51.980;5.850;2023-12-20T21:12:10;100458.63;;;9.11;100.00
51603;BME280;37954;51.980;5.850;2023-12-20T21:17:11;100448.31;;;9.14;100.00
51603;BME280;37954;51.980;5.850;2023-12-20T21:26:49;100448.38;;;9.26;100.00
51603;BME280;37954;51.980;5.850;2023-12-20T21:31:44;100449.81;;;9.28;100.00
51603;BME280;37954;51.980;5.850;2023-12-20T21:36:07;100435.19;;;9.24;100.00
51603;BME280;37954;51.980;5.850;2023-12-20T21:40:19;100432.25;;;9.32;100.00
51603;BME280;37954;51.980;5.850;2023-12-20T21:44:31;100400.59;;;9.23;100.00
51603;BME280;37954;51.980;5.850;2023-12-20T21:48:42;100411.63;;;9.33;100.00
51603;BME280;37954;51.980;5.850;2023-12-20T21:52:54;100413.91;;;9.29;100.00
51603;BME280;37954;51.980;5.850;2023-12-20T21:57:06;100406.03;;;9.34;100.00
51603;BME280;37954;51.980;5.850;2023-12-20T22:01:17;100392.69;;;9.28;100.00
51603;BME280;37954;51.980;5.850;2023-12-20T22:05:29;100424.34;;;9.37;100.00
51603;BME280;37954;51.980;5.850;2023-12-20T22:09:41;100408.13;;;9.32;100.00
51603;BME280;37954;51.980;5.850;2023-12-20T22:13:52;100421.81;;;9.42;100.00
51603;BME280;37954;51.980;5.850;2023-12-20T22:18:05;100423.44;;;9.43;100.00